Time;durP1;ratioP1;P1;durP2;ratioP2;P2;SDS_P1;SDS_P2;PMS_P1;PMS_P2;Temp;Humidity;BMP_temperature;BMP_pressure;BME280_temperature;BME280_humidity;BME280_pressure;Samples;Min_cycle;Max_cycle;Signal;HPM_P1;HPM_P2
2022/07/12 00:00:08;;;;;;;2.40;2.20;;;;;;;-144.22;100.00;60274.75;6256415;28;20247;-68
2022/07/12 00:03:10;;;;;;;2.90;2.70;;;;;;;-144.22;100.00;60274.75;6223116;28;20702;-68
2022/07/12 00:06:12;;;;;;;2.43;2.20;;;;;;;-144.22;100.00;60274.75;6238897;28;20721;-68
2022/07/12 00:09:15;;;;;;;3.53;2.23;;;;;;;-144.22;100.00;60274.75;6256507;28;20695;-69
2022/07/12 00:12:17;;;;;;;4.70;2.10;;;;;;;-144.22;100.00;60274.75;6239229;28;20771;-68
2022/07/12 00:15:19;;;;;;;2.30;2.10;;;;;;;-144.22;100.00;60274.75;6256041;28;20766;-68
2022/07/12 00:18:21;;;;;;;2.50;2.30;;;;;;;-144.22;100.00;60274.75;6254921;28;20239;-68
2022/07/12 00:21:23;;;;;;;3.63;2.20;;;;;;;-144.22;100.00;60274.75;6255705;28;20251;-68
2022/07/12 00:24:25;;;;;;;2.47;2.27;;;;;;;-144.22;100.00;60274.75;6257149;28;20221;-69
2022/07/12 00:27:28;;;;;;;2.27;1.80;;;;;;;-144.22;100.00;60274.75;6256235;28;20601;-68
2022/07/12 00:30:30;;;;;;;2.23;2.03;;;;;;;-144.22;100.00;60274.75;6254565;28;20247;-68
2022/07/12 00:33:32;;;;;;;2.50;1.83;;;;;;;-144.22;100.00;60274.75;6255167;28;20232;-69
2022/07/12 00:36:34;;;;;;;3.63;2.47;;;;;;;-144.22;100.00;60274.75;6255183;28;20223;-69
2022/07/12 00:39:37;;;;;;;2.33;2.00;;;;;;;-144.22;100.00;60274.75;6254888;28;20226;-69
2022/07/12 00:42:39;;;;;;;1.97;1.80;;;;;;;-144.22;100.00;60274.75;6255671;28;20228;-68
2022/07/12 00:45:41;;;;;;;1.93;1.70;;;;;;;-144.22;100.00;60274.75;6255435;28;20222;-69
2022/07/12 00:48:44;;;;;;;2.00;1.80;;;;;;;-144.22;100.00;60274.75;6255464;28;20695;-69
2022/07/12 00:51:47;;;;;;;2.37;1.80;;;;;;;-144.22;100.00;60274.75;6255822;28;20695;-68
2022/07/12 00:54:49;;;;;;;2.27;1.70;;;;;;;-144.22;100.00;60274.75;6255112;28;20467;-68
2022/07/12 00:57:52;;;;;;;2.60;1.70;;;;;;;-144.22;100.00;60274.75;6260876;28;20215;-68
2022/07/12 01:01:47;;;;;;;2.97;1.60;;;;;;;-144.22;100.00;60274.75;6259672;28;20227;-68
2022/07/12 01:04:51;;;;;;;3.07;1.90;;;;;;;-144.22;100.00;60274.75;6254259;28;20236;-68
2022/07/12 01:07:54;;;;;;;1.53;1.43;;;;;;;-144.22;100.00;60274.75;6255821;28;20262;-69
2022/07/12 01:10:56;;;;;;;1.83;1.47;;;;;;;-144.22;100.00;60274.75;6237916;28;20654;-68
2022/07/12 01:14:00;;;;;;;1.80;1.70;;;;;;;-144.22;100.00;60274.75;6255315;28;20517;-68
2022/07/12 01:17:03;;;;;;;2.07;1.30;;;;;;;-144.22;100.00;60274.75;6259999;28;20226;-68
2022/07/12 01:20:07;;;;;;;2.17;1.70;;;;;;;-144.22;100.00;60274.75;6254513;28;20225;-68
2022/07/12 01:23:09;;;;;;;2.97;1.63;;;;;;;-144.22;100.00;60274.75;6237949;28;20246;-68
2022/07/12 01:26:11;;;;;;;3.10;1.37;;;;;;;-144.22;100.00;60274.75;6254872;28;20231;-68
2022/07/12 01:29:14;;;;;;;1.53;1.37;;;;;;;-144.22;100.00;60274.75;6237252;28;20231;-68
2022/07/12 01:32:26;;;;;;;1.43;1.30;;;;;;;-144.22;100.00;60274.75;6254425;28;20220;-68
2022/07/12 01:35:30;;;;;;;2.63;1.80;;;;;;;-144.22;100.00;60274.75;6254860;28;20232;-69
2022/07/12 01:38:32;;;;;;;1.70;1.60;;;;;;;-144.22;100.00;60274.75;6237704;28;20232;-68
2022/07/12 01:41:34;;;;;;;3.50;1.37;;;;;;;-144.22;100.00;60274.75;6253444;28;20751;-69
2022/07/12 01:44:36;;;;;;;2.17;1.50;;;;;;;-144.22;100.00;60274.75;6254786;28;20600;-68
2022/07/12 01:47:39;;;;;;;1.47;1.37;;;;;;;-144.22;100.00;60274.75;6253912;28;20428;-69
2022/07/12 01:50:42;;;;;;;1.63;1.13;;;;;;;-144.22;100.00;60274.75;6254142;28;20235;-68
2022/07/12 01:53:44;;;;;;;1.23;1.13;;;;;;;-144.22;100.00;60274.75;6236383;28;20233;-69
2022/07/12 01:56:46;;;;;;;1.30;1.20;;;;;;;-144.22;100.00;60274.75;6254572;28;20599;-69
2022/07/12 01:59:48;;;;;;;4.13;1.43;;;;;;;-144.22;100.00;60274.75;6235712;28;20287;-69
2022/07/12 02:02:51;;;;;;;1.97;1.53;;;;;;;-144.22;100.00;60274.75;6252335;28;20263;-69
2022/07/12 02:05:53;;;;;;;2.73;1.30;;;;;;;-144.22;100.00;60274.75;6254205;28;20228;-69
2022/07/12 02:08:55;;;;;;;2.10;1.40;;;;;;;-144.22;100.00;60274.75;6253926;28;20233;-69
2022/07/12 02:11:58;;;;;;;1.63;1.53;;;;;;;-144.22;100.00;60274.75;6253131;28;20241;-69
2022/07/12 02:15:00;;;;;;;1.40;1.30;;;;;;;-144.22;100.00;60274.75;6253429;28;20608;-69
2022/07/12 02:18:02;;;;;;;1.30;1.20;;;;;;;-144.22;100.00;60274.75;6253593;28;20215;-69
2022/07/12 02:21:05;;;;;;;1.33;1.23;;;;;;;-144.22;100.00;60274.75;6252703;28;20223;-69
2022/07/12 02:24:07;;;;;;;1.57;1.47;;;;;;;-144.22;100.00;60274.75;6253830;28;20243;-69
2022/07/12 02:27:09;;;;;;;2.73;1.30;;;;;;;-144.22;100.00;60274.75;6236768;28;20224;-69
2022/07/12 02:30:12;;;;;;;1.53;1.43;;;;;;;-144.22;100.00;60274.75;6235597;28;20581;-69
2022/07/12 02:33:15;;;;;;;1.60;1.30;;;;;;;-144.22;100.00;60274.75;6235702;28;20663;-70
2022/07/12 02:36:17;;;;;;;1.57;1.30;;;;;;;-144.22;100.00;60274.75;6234944;28;20773;-69
2022/07/12 02:39:19;;;;;;;1.50;1.40;;;;;;;-144.22;100.00;60274.75;6252170;28;20639;-69
2022/07/12 02:42:21;;;;;;;1.53;1.43;;;;;;;-144.22;100.00;60274.75;6247328;28;20243;-71
2022/07/12 02:45:23;;;;;;;1.40;1.30;;;;;;;-144.22;100.00;60274.75;6252065;28;20224;-70
2022/07/12 02:48:25;;;;;;;1.97;1.30;;;;;;;-144.22;100.00;60274.75;6252865;28;20224;-70
2022/07/12 02:51:27;;;;;;;1.60;1.30;;;;;;;-144.22;100.00;60274.75;6252602;28;20636;-69
2022/07/12 02:54:29;;;;;;;1.43;1.33;;;;;;;-144.22;100.00;60274.75;6253215;28;20246;-70
2022/07/12 02:57:31;;;;;;;1.73;1.40;;;;;;;-144.22;100.00;60274.75;6253910;28;20800;-70
2022/07/12 03:00:35;;;;;;;1.30;1.20;;;;;;;-144.22;100.00;60274.75;6252864;28;20604;-70
2022/07/12 03:03:37;;;;;;;2.73;1.67;;;;;;;-144.22;100.00;60274.75;6253051;28;20638;-70
2022/07/12 03:06:39;;;;;;;1.50;1.40;;;;;;;-144.22;100.00;60274.75;6235163;28;20256;-70
2022/07/12 03:09:41;;;;;;;1.40;1.30;;;;;;;-144.22;100.00;60274.75;6251551;28;20228;-70
2022/07/12 03:12:43;;;;;;;1.60;1.50;;;;;;;-144.22;100.00;60274.75;6253480;28;20229;-70
2022/07/12 03:15:52;;;;;;;1.90;1.60;;;;;;;-144.22;100.00;60274.75;6252109;28;20326;-70
2022/07/12 03:18:54;;;;;;;1.60;1.50;;;;;;;-144.22;100.00;60274.75;6252363;28;20837;-70
2022/07/12 03:21:56;;;;;;;2.13;1.80;;;;;;;-144.22;100.00;60274.75;6253568;28;20236;-70
2022/07/12 03:24:58;;;;;;;1.87;1.40;;;;;;;-144.22;100.00;60274.75;6252617;28;20629;-70
2022/07/12 03:28:00;;;;;;;1.43;1.27;;;;;;;-144.22;100.00;60274.75;6252160;28;20592;-69
2022/07/12 03:31:02;;;;;;;1.87;1.20;;;;;;;-144.22;100.00;60274.75;6252102;28;20314;-70
2022/07/12 03:34:05;;;;;;;1.40;1.30;;;;;;;-144.22;100.00;60274.75;6252427;28;20366;-70
2022/07/12 03:37:07;;;;;;;1.50;1.40;;;;;;;-144.22;100.00;60274.75;6218759;28;20235;-70
2022/07/12 03:40:10;;;;;;;2.20;1.47;;;;;;;-144.22;100.00;60274.75;6252052;28;20236;-69
2022/07/12 03:43:12;;;;;;;1.97;1.57;;;;;;;-144.22;100.00;60274.75;6251697;28;20656;-70
2022/07/12 03:46:14;;;;;;;1.70;1.40;;;;;;;-144.22;100.00;60274.75;6233896;28;20255;-70
2022/07/12 03:49:16;;;;;;;2.33;1.50;;;;;;;-144.22;100.00;60274.75;6237959;28;20373;-69
2022/07/12 03:52:18;;;;;;;1.30;1.20;;;;;;;-144.22;100.00;60274.75;6223127;28;20263;-69
2022/07/12 03:55:20;;;;;;;1.50;1.40;;;;;;;-144.22;100.00;60274.75;6256865;28;20247;-69
2022/07/12 03:58:22;;;;;;;1.63;1.53;;;;;;;-144.22;100.00;60274.75;6252683;28;20593;-69
2022/07/12 04:01:24;;;;;;;1.37;1.17;;;;;;;-144.22;100.00;60274.75;6252143;28;20229;-69
2022/07/12 04:04:26;;;;;;;1.60;1.50;;;;;;;-144.22;100.00;60274.75;6253856;28;20594;-70
2022/07/12 04:07:28;;;;;;;2.17;1.40;;;;;;;-144.22;100.00;60274.75;6255682;28;20240;-69
2022/07/12 04:10:31;;;;;;;2.87;1.90;;;;;;;-144.22;100.00;60274.75;6254486;28;20260;-69
2022/07/12 04:13:33;;;;;;;3.27;1.50;;;;;;;-144.22;100.00;60274.75;6256412;28;20228;-70
2022/07/12 04:16:36;;;;;;;1.90;1.70;;;;;;;-144.22;100.00;60274.75;6255656;28;20260;-69
2022/07/12 04:19:38;;;;;;;4.10;1.40;;;;;;;-144.22;100.00;60274.75;6256429;28;20297;-69
2022/07/12 04:22:40;;;;;;;1.80;1.70;;;;;;;-144.22;100.00;60274.75;6254622;28;20318;-69
2022/07/12 04:25:42;;;;;;;2.13;1.60;;;;;;;-144.22;100.00;60274.75;6238240;28;20698;-70
2022/07/12 04:28:44;;;;;;;1.53;1.43;;;;;;;-144.22;100.00;60274.75;6237620;28;20234;-69
2022/07/12 04:31:46;;;;;;;1.87;1.53;;;;;;;-144.22;100.00;60274.75;6238170;28;20714;-70
2022/07/12 04:34:48;;;;;;;2.20;2.00;;;;;;;-144.22;100.00;60274.75;6255951;28;20595;-69
2022/07/12 04:37:50;;;;;;;2.03;1.67;;;;;;;-144.22;100.00;60274.75;6237984;28;20226;-70
2022/07/12 04:40:52;;;;;;;2.50;1.60;;;;;;;-144.22;100.00;60274.75;6254294;28;20744;-69
2022/07/12 04:43:54;;;;;;;2.90;1.63;;;;;;;-144.22;100.00;60274.75;6256471;28;20714;-70
2022/07/12 04:46:56;;;;;;;1.60;1.50;;;;;;;-144.22;100.00;60274.75;6254982;28;20606;-69
2022/07/12 04:49:59;;;;;;;1.90;1.67;;;;;;;-144.22;100.00;60274.75;6237229;28;20611;-70
2022/07/12 04:53:01;;;;;;;1.37;1.27;;;;;;;-144.22;100.00;60274.75;6253723;28;20584;-69
2022/07/12 04:56:03;;;;;;;1.60;1.40;;;;;;;-144.22;100.00;60274.75;6237045;28;20242;-70
2022/07/12 04:59:05;;;;;;;2.03;1.80;;;;;;;-144.22;100.00;60274.75;6236856;28;20230;-71
2022/07/12 05:02:07;;;;;;;1.60;1.50;;;;;;;-144.22;100.00;60274.75;6253546;28;20702;-69
2022/07/12 05:05:09;;;;;;;1.60;1.50;;;;;;;-144.22;100.00;60274.75;6253766;28;20230;-70
2022/07/12 05:08:11;;;;;;;1.63;1.47;;;;;;;-144.22;100.00;60274.75;6236878;28;20273;-69
2022/07/12 05:11:13;;;;;;;3.63;1.77;;;;;;;-144.22;100.00;60274.75;6230786;28;20333;-70
2022/07/12 05:14:15;;;;;;;2.80;1.90;;;;;;;-144.22;100.00;60274.75;6255770;28;20238;-70
2022/07/12 05:17:17;;;;;;;3.03;1.60;;;;;;;-144.22;100.00;60274.75;6236755;28;20230;-69
2022/07/12 05:20:19;;;;;;;2.07;1.70;;;;;;;-144.22;100.00;60274.75;6254244;28;20678;-70
2022/07/12 05:23:22;;;;;;;1.80;1.63;;;;;;;-144.22;100.00;60274.75;6254687;28;20227;-70
2022/07/12 05:26:24;;;;;;;1.67;1.57;;;;;;;-144.22;100.00;60274.75;6254463;28;20241;-70
2022/07/12 05:29:26;;;;;;;1.57;1.47;;;;;;;-144.22;100.00;60274.75;6253587;28;20223;-69
2022/07/12 05:32:28;;;;;;;2.30;1.53;;;;;;;-144.22;100.00;60274.75;6253649;28;20225;-70
2022/07/12 05:35:30;;;;;;;2.13;1.73;;;;;;;-144.22;100.00;60274.75;6253700;28;20843;-70
2022/07/12 05:38:32;;;;;;;1.57;1.37;;;;;;;-144.22;100.00;60274.75;6252991;28;20363;-70
2022/07/12 05:41:34;;;;;;;2.30;2.10;;;;;;;-144.22;100.00;60274.75;6253728;28;20230;-70
2022/07/12 05:44:36;;;;;;;2.10;1.40;;;;;;;-144.22;100.00;60274.75;6254432;28;20245;-70
2022/07/12 05:47:38;;;;;;;1.67;1.47;;;;;;;-144.22;100.00;60274.75;6253917;28;20710;-70
2022/07/12 05:50:40;;;;;;;2.23;1.47;;;;;;;-144.22;100.00;60274.75;6254070;28;20239;-70
2022/07/12 05:53:42;;;;;;;1.77;1.27;;;;;;;-144.22;100.00;60274.75;6254276;28;20231;-70
2022/07/12 05:56:44;;;;;;;5.90;1.67;;;;;;;-144.22;100.00;60274.75;6253296;28;20246;-69
2022/07/12 05:59:47;;;;;;;4.60;1.30;;;;;;;-144.22;100.00;60274.75;6253711;28;20244;-70
2022/07/12 08:01:53;;;;;;;0.40;0.40;;;;;;;-144.22;100.00;60274.75;2841585;28;23269;-70
2022/07/12 08:04:55;;;;;;;3.67;0.87;;;;;;;-144.22;100.00;60274.75;6230864;28;20231;-71
2022/07/12 08:07:57;;;;;;;1.30;0.80;;;;;;;-144.22;100.00;60274.75;6236558;28;20532;-70
2022/07/12 08:10:59;;;;;;;2.83;0.70;;;;;;;-144.22;100.00;60274.75;6255918;28;20567;-70
2022/07/12 08:14:06;;;;;;;2.33;0.80;;;;;;;-144.22;100.00;60274.75;6254899;28;20250;-70
2022/07/12 08:17:08;;;;;;;0.77;0.70;;;;;;;-144.22;100.00;60274.75;6237688;28;20743;-70
2022/07/12 08:20:10;;;;;;;0.40;0.40;;;;;;;-144.22;100.00;60274.75;6239257;28;20721;-71
2022/07/12 08:23:32;;;;;;;1.87;0.90;;;;;;;-144.22;100.00;60274.75;6253906;28;20388;-71
2022/07/12 08:26:34;;;;;;;1.63;0.50;;;;;;;-144.22;100.00;60274.75;6254635;28;20786;-71
2022/07/12 08:29:36;;;;;;;0.90;0.87;;;;;;;-144.22;100.00;60274.75;6221814;28;20231;-70
2022/07/12 08:32:43;;;;;;;0.50;0.50;;;;;;;-144.22;100.00;60274.75;6255766;28;20227;-71
2022/07/12 08:35:45;;;;;;;2.50;0.80;;;;;;;-144.22;100.00;60274.75;6255749;28;20235;-71
2022/07/12 08:38:48;;;;;;;1.43;0.80;;;;;;;-144.22;100.00;60274.75;6255382;28;20223;-71
2022/07/12 08:41:50;;;;;;;2.77;0.73;;;;;;;-144.22;100.00;60274.75;6257599;28;20265;-70
2022/07/12 08:44:56;;;;;;;0.90;0.90;;;;;;;-144.22;100.00;60274.75;6256960;28;20230;-70
2022/07/12 08:47:58;;;;;;;0.90;0.60;;;;;;;-144.22;100.00;60274.75;6255530;28;20663;-70
2022/07/12 08:51:05;;;;;;;1.05;0.80;;;;;;;-144.22;100.00;60274.75;6236444;28;20227;-70
2022/07/12 08:54:15;;;;;;;2.47;0.70;;;;;;;-144.22;100.00;60274.75;6237845;28;20231;-70
2022/07/12 08:57:30;;;;;;;1.20;0.82;;;;;;;-144.22;100.00;60274.75;6212861;28;20781;-71
2022/07/12 09:00:33;;;;;;;0.52;0.40;;;;;;;-144.22;100.00;60274.75;6218122;28;20228;-70
2022/07/12 09:03:35;;;;;;;2.25;0.95;;;;;;;-144.22;100.00;60274.75;6132493;28;20733;-71
2022/07/12 09:06:37;;;;;;;0.93;0.70;;;;;;;-144.22;100.00;60274.75;6254890;28;20721;-71
2022/07/12 09:09:39;;;;;;;1.60;0.80;;;;;;;-144.22;100.00;60274.75;6236618;28;20279;-70
2022/07/12 09:12:44;;;;;;;0.82;0.60;;;;;;;-144.22;100.00;60274.75;6255288;28;20321;-71
2022/07/12 09:15:50;;;;;;;1.30;0.60;;;;;;;-144.22;100.00;60274.75;6238162;28;20250;-71
2022/07/12 09:19:12;;;;;;;2.05;0.70;;;;;;;-144.22;100.00;60274.75;6254771;28;20234;-71
2022/07/12 09:22:18;;;;;;;1.17;0.75;;;;;;;-144.22;100.00;60274.75;6245376;28;20308;-70
2022/07/12 09:25:20;;;;;;;1.40;0.60;;;;;;;-144.22;100.00;60274.75;6259901;28;20234;-72
2022/07/12 09:28:22;;;;;;;1.67;0.60;;;;;;;-144.22;100.00;60274.75;6236283;28;20601;-70
2022/07/12 09:31:38;;;;;;;1.05;0.73;;;;;;;-144.22;100.00;60274.75;6254810;28;20626;-71
2022/07/12 09:38:12;;;;;;;1.48;0.60;;;;;;;-144.22;100.00;60274.75;6254507;28;20236;-70
2022/07/12 09:41:18;;;;;;;2.35;0.70;;;;;;;-144.22;100.00;60274.75;6244267;28;20259;-71
2022/07/12 09:44:20;;;;;;;1.77;0.65;;;;;;;-144.22;100.00;60274.75;6236212;28;20223;-71
2022/07/12 09:47:23;;;;;;;2.17;0.70;;;;;;;-144.22;100.00;60274.75;6236372;28;20265;-71
2022/07/12 09:50:25;;;;;;;1.88;0.60;;;;;;;-144.22;100.00;60274.75;6254559;28;20254;-71
2022/07/12 09:53:48;;;;;;;1.13;0.50;;;;;;;-144.22;100.00;60274.75;6254802;28;20377;-69
2022/07/12 09:56:53;;;;;;;1.35;0.57;;;;;;;-144.22;100.00;60274.75;6253533;28;20721;-71
2022/07/12 09:59:57;;;;;;;1.15;0.50;;;;;;;-144.22;100.00;60274.75;6236127;28;20304;-71
2022/07/12 10:03:00;;;;;;;1.35;0.50;;;;;;;-144.22;100.00;60274.75;6253161;28;20261;-70
2022/07/12 10:06:03;;;;;;;1.55;0.40;;;;;;;-144.22;100.00;60274.75;6253330;28;20292;-70
2022/07/12 10:09:06;;;;;;;0.57;0.50;;;;;;;-144.22;100.00;60274.75;6234785;28;20219;-70
2022/07/12 10:12:16;;;;;;;0.75;0.60;;;;;;;-144.22;100.00;60274.75;6253161;28;20215;-71
2022/07/12 10:15:22;;;;;;;1.10;0.85;;;;;;;-144.22;100.00;60274.75;6236381;28;20223;-70
2022/07/12 10:18:24;;;;;;;0.82;0.40;;;;;;;-144.22;100.00;60274.75;6252945;28;20231;-70
2022/07/12 10:21:27;;;;;;;1.25;0.40;;;;;;;-144.22;100.00;60274.75;6253152;28;20733;-71
2022/07/12 10:24:31;;;;;;;0.63;0.45;;;;;;;-144.22;100.00;60274.75;6235442;28;20226;-70
2022/07/12 10:27:38;;;;;;;0.43;0.43;;;;;;;-144.22;100.00;60274.75;6252929;28;20223;-70
2022/07/12 10:30:50;;;;;;;1.10;0.50;;;;;;;36.54;22.83;98071.22;6253120;28;20293;-71
2022/07/12 10:34:21;;;;;;;0.55;0.50;;;;;;;29.10;26.07;98219.03;6253738;28;20494;-70
2022/07/12 10:37:24;;;;;;;1.10;0.75;;;;;;;28.92;26.43;98228.03;6253284;28;20231;-71
2022/07/12 10:40:26;;;;;;;1.63;0.45;;;;;;;28.26;27.86;98236.81;6252482;28;20227;-70
2022/07/12 10:47:00;;;;;;;0.73;0.57;;;;;;;29.67;25.90;98224.97;6252991;28;20576;-70
2022/07/12 10:50:02;;;;;;;1.02;0.50;;;;;;;30.26;25.00;98223.22;6252672;28;20833;-70
2022/07/12 10:53:29;;;;;;;1.13;0.50;;;;;;;30.18;24.49;98218.13;6234999;28;20649;-70
2022/07/12 10:56:38;;;;;;;1.67;0.60;;;;;;;28.99;26.33;98222.53;6251331;28;20596;-71
2022/07/12 10:59:41;;;;;;;0.60;0.50;;;;;;;28.81;25.62;98217.09;6252462;28;20711;-71
2022/07/12 11:02:43;;;;;;;0.75;0.50;;;;;;;28.74;26.60;98209.00;6252656;28;20714;-70
2022/07/12 11:05:45;;;;;;;0.47;0.43;;;;;;;28.45;26.75;98218.69;6218419;28;20353;-70
2022/07/12 11:08:48;;;;;;;1.08;0.47;;;;;;;29.12;25.89;98211.50;6235172;28;20235;-71
2022/07/12 11:11:51;;;;;;;1.80;0.43;;;;;;;29.03;25.55;98214.75;6236765;28;20702;-71
2022/07/12 11:14:53;;;;;;;1.73;0.50;;;;;;;28.02;26.95;98215.94;6238521;28;20234;-71
2022/07/12 11:17:55;;;;;;;1.02;0.60;;;;;;;27.29;27.03;98223.66;6256996;28;20234;-71
2022/07/12 11:21:00;;;;;;;1.95;0.50;;;;;;;26.57;28.53;98221.19;6257234;28;20263;-70
2022/07/12 11:24:02;;;;;;;0.85;0.50;;;;;;;28.02;27.65;98234.09;6256932;28;20317;-71
2022/07/12 11:27:05;;;;;;;0.50;0.50;;;;;;;28.01;25.04;98214.25;6239436;28;20257;-70
2022/07/12 11:30:08;;;;;;;3.63;0.57;;;;;;;29.09;25.83;98219.25;6257123;28;20234;-69
2022/07/12 11:33:10;;;;;;;1.45;0.55;;;;;;;28.67;25.44;98201.94;6239390;28;20674;-70
2022/07/12 11:36:14;;;;;;;0.70;0.60;;;;;;;27.26;27.09;98215.97;6223178;28;20549;-69
2022/07/12 11:39:17;;;;;;;1.55;0.70;;;;;;;26.05;28.43;98225.59;6239367;28;20226;-70
2022/07/12 11:42:19;;;;;;;0.70;0.50;;;;;;;25.99;29.70;98223.72;6256953;28;20243;-70
2022/07/12 11:45:21;;;;;;;0.52;0.52;;;;;;;25.65;30.79;98230.16;6256638;28;20304;-70
2022/07/12 11:48:24;;;;;;;1.02;0.65;;;;;;;25.74;30.87;98226.19;6256251;28;20603;-70
2022/07/12 11:51:27;;;;;;;0.73;0.40;;;;;;;26.25;31.14;98220.19;6257044;28;20223;-70
2022/07/12 11:54:30;;;;;;;1.20;0.50;;;;;;;26.24;30.98;98213.09;6256697;28;20250;-70
2022/07/12 11:57:33;;;;;;;0.60;0.40;;;;;;;25.98;32.07;98217.47;6238797;28;20235;-70
2022/07/12 12:00:35;;;;;;;0.90;0.50;;;;;;;25.95;33.11;98219.78;6239044;28;20781;-70
2022/07/12 12:03:45;;;;;;;0.70;0.38;;;;;;;25.54;34.15;98220.72;6237843;28;20227;-71
2022/07/12 12:06:47;;;;;;;1.00;0.40;;;;;;;25.51;34.85;98221.13;6238112;28;20223;-69
2022/07/12 12:10:25;;;;;;;0.50;0.40;;;;;;;25.67;35.14;98215.34;6238126;28;20572;-70
2022/07/12 12:13:29;;;;;;;2.08;0.50;;;;;;;25.57;34.98;98222.16;6126450;29;20249;-69
2022/07/12 12:16:34;;;;;;;0.93;0.60;;;;;;;25.46;34.90;98226.31;6132471;29;20239;-70
2022/07/12 12:19:44;;;;;;;0.55;0.45;;;;;;;25.63;34.97;98229.50;6132238;29;20241;-70
2022/07/12 12:22:48;;;;;;;0.50;0.50;;;;;;;25.40;35.80;98220.88;6131479;29;20238;-70
2022/07/12 12:25:51;;;;;;;0.38;0.38;;;;;;;25.49;35.64;98223.19;6116687;29;20703;-69
2022/07/12 12:28:56;;;;;;;1.35;0.50;;;;;;;25.49;33.72;98223.19;6131590;29;20234;-69
2022/07/12 12:31:58;;;;;;;1.58;0.80;;;;;;;25.75;32.72;98225.16;6131021;29;20253;-69
2022/07/12 12:35:11;;;;;;;0.95;0.60;;;;;;;26.56;29.98;98220.34;6117486;29;20662;-70
2022/07/12 12:38:15;;;;;;;2.60;0.77;;;;;;;27.39;29.07;98217.78;6130456;29;20246;-69
2022/07/12 12:41:19;;;;;;;0.77;0.50;;;;;;;28.07;29.22;98216.06;6131859;28;20249;-70
2022/07/12 12:44:21;;;;;;;1.80;0.60;;;;;;;29.17;26.59;98227.94;6130842;29;20238;-70
2022/07/12 12:47:33;;;;;;;2.35;0.63;;;;;;;29.60;26.03;98213.38;6201087;28;20288;-69
2022/07/12 12:50:36;;;;;;;1.30;0.50;;;;;;;29.32;25.86;98222.09;6255231;28;20237;-70
2022/07/12 12:53:41;;;;;;;0.75;0.70;;;;;;;28.35;26.59;98226.50;6238242;28;20737;-70
2022/07/12 12:56:43;;;;;;;2.17;0.55;;;;;;;27.94;27.46;98223.50;6254806;28;20247;-69
2022/07/12 12:59:45;;;;;;;1.08;0.50;;;;;;;27.34;27.78;98223.88;6254901;28;20783;-70
2022/07/12 13:02:48;;;;;;;0.93;0.52;;;;;;;26.94;28.56;98216.97;6254393;28;20230;-69
2022/07/12 13:05:51;;;;;;;1.15;0.57;;;;;;;26.65;28.89;98227.19;6255315;28;20322;-71
2022/07/12 13:08:53;;;;;;;1.27;0.60;;;;;;;26.46;29.39;98214.53;6255480;28;20235;-69
2022/07/12 13:11:56;;;;;;;0.95;0.70;;;;;;;26.14;29.63;98221.66;6254131;28;20604;-69
2022/07/12 13:14:58;;;;;;;0.60;0.60;;;;;;;25.79;29.94;98226.41;6254906;28;20317;-71
2022/07/12 13:18:03;;;;;;;1.45;0.90;;;;;;;25.30;30.46;98226.69;6254622;28;20235;-70
2022/07/12 13:21:05;;;;;;;1.88;0.75;;;;;;;24.82;30.98;98223.13;6236865;28;20228;-71
2022/07/12 13:24:07;;;;;;;1.15;0.93;;;;;;;24.83;31.05;98233.75;6256393;28;20592;-70
2022/07/12 13:27:09;;;;;;;0.95;0.60;;;;;;;24.93;31.89;98236.94;6220192;28;20276;-70
2022/07/12 13:30:13;;;;;;;0.93;0.60;;;;;;;25.11;31.69;98231.00;6254490;28;20710;-70
2022/07/12 13:33:16;;;;;;;1.30;0.60;;;;;;;25.44;31.02;98232.97;6237453;28;20223;-70
2022/07/12 13:36:18;;;;;;;1.00;0.70;;;;;;;25.80;31.13;98235.34;6253617;28;20301;-71
2022/07/12 13:42:47;;;;;;;0.98;0.60;;;;;;;25.99;31.57;98229.13;6253874;28;20246;-70
2022/07/12 13:45:52;;;;;;;1.20;0.82;;;;;;;25.70;31.59;98233.88;6237066;28;20232;-70
2022/07/12 13:48:54;;;;;;;1.15;0.60;;;;;;;26.00;32.86;98226.22;6253933;28;20692;-70
2022/07/12 13:51:57;;;;;;;0.60;0.52;;;;;;;26.43;32.71;98234.75;6253907;28;20706;-70
2022/07/12 13:54:59;;;;;;;0.80;0.60;;;;;;;27.21;31.38;98228.50;6252948;28;20221;-69
2022/07/12 13:58:01;;;;;;;1.77;0.95;;;;;;;27.65;28.98;98231.19;6253640;28;20321;-70
2022/07/12 14:01:03;;;;;;;1.95;0.90;;;;;;;27.84;28.68;98229.44;6253090;28;20735;-70
2022/07/12 14:04:05;;;;;;;1.08;0.77;;;;;;;28.57;27.08;98235.06;6254271;28;20227;-70
2022/07/12 14:07:07;;;;;;;1.65;0.60;;;;;;;29.92;26.31;98216.66;6254109;28;20219;-70
2022/07/12 14:10:10;;;;;;;3.10;0.90;;;;;;;31.39;23.94;98214.59;6253804;28;20303;-70
2022/07/12 14:13:12;;;;;;;1.67;0.70;;;;;;;32.74;22.73;98217.22;6227264;28;20738;-71
2022/07/12 14:16:14;;;;;;;1.65;0.70;;;;;;;34.56;20.51;98201.03;6234594;28;20706;-71
2022/07/12 14:19:16;;;;;;;0.93;0.60;;;;;;;36.37;19.17;98199.97;6253416;28;20230;-70
2022/07/12 14:22:19;;;;;;;1.17;0.70;;;;;;;37.29;17.03;98203.31;6252136;28;20246;-70
2022/07/12 14:25:21;;;;;;;1.17;0.68;;;;;;;38.55;15.76;98201.59;6235362;28;20599;-70
2022/07/12 14:28:23;;;;;;;1.33;0.70;;;;;;;38.96;15.84;98202.00;6252586;28;20239;-71
2022/07/12 14:31:25;;;;;;;2.38;0.52;;;;;;;39.68;15.02;98199.97;6253624;28;20230;-70
2022/07/12 14:34:28;;;;;;;1.48;0.80;;;;;;;40.36;14.19;98204.97;6252518;28;20227;-71
2022/07/12 14:37:30;;;;;;;1.40;0.85;;;;;;;39.28;14.06;98192.22;6253389;28;20285;-71
2022/07/12 14:40:32;;;;;;;1.23;0.60;;;;;;;38.26;15.24;98195.25;6235984;28;20562;-71
2022/07/12 14:43:34;;;;;;;1.17;0.60;;;;;;;39.58;13.54;98204.81;6251560;28;20748;-71
2022/07/12 14:46:37;;;;;;;1.40;0.60;;;;;;;40.37;13.63;98195.56;6252609;28;20227;-71
2022/07/12 14:49:39;;;;;;;2.15;0.50;;;;;;;40.61;12.81;98186.28;6235267;28;20702;-70
2022/07/12 14:52:42;;;;;;;0.98;0.52;;;;;;;41.15;12.71;98193.81;6236475;28;20247;-71
2022/07/12 14:55:44;;;;;;;1.15;0.52;;;;;;;37.46;15.55;98205.69;6235551;28;20234;-70
2022/07/12 14:58:46;;;;;;;1.05;0.60;;;;;;;39.10;14.45;98183.63;6252319;28;20235;-70
2022/07/12 15:01:55;;;;;;;1.35;0.70;;;;;;;40.81;12.90;98192.28;6252808;28;20716;-70
2022/07/12 15:05:02;;;;;;;2.05;0.70;;;;;;;40.25;13.94;98189.66;6252904;28;20310;-70
2022/07/12 15:08:04;;;;;;;1.05;0.70;;;;;;;40.18;13.39;98187.28;6234495;28;20313;-70
2022/07/12 15:11:06;;;;;;;0.98;0.80;;;;;;;39.99;14.24;98177.41;6251620;28;20227;-70
2022/07/12 15:14:09;;;;;;;0.60;0.60;;;;;;;41.01;12.98;98181.91;6252921;28;20231;-70
2022/07/12 15:17:11;;;;;;;2.33;0.85;;;;;;;41.23;13.45;98168.97;6253013;28;20250;-70
2022/07/12 15:20:13;;;;;;;0.63;0.60;;;;;;;41.41;13.48;98177.47;6252575;28;20603;-70
2022/07/12 15:23:15;;;;;;;0.82;0.60;;;;;;;41.45;12.37;98165.44;6234323;28;20235;-70
2022/07/12 15:26:17;;;;;;;3.33;0.80;;;;;;;41.77;13.09;98183.03;6252569;28;20223;-70
2022/07/12 15:29:19;;;;;;;0.90;0.70;;;;;;;40.01;13.52;98170.44;6234423;28;20230;-70
2022/07/12 15:32:21;;;;;;;1.45;0.70;;;;;;;38.49;14.27;98164.13;6234657;28;20339;-70
2022/07/12 15:35:24;;;;;;;1.27;0.60;;;;;;;39.42;14.16;98158.06;6251258;28;20227;-69
2022/07/12 15:38:26;;;;;;;2.80;0.73;;;;;;;38.81;14.13;98155.25;6234289;28;20235;-70
2022/07/12 15:41:28;;;;;;;0.95;0.60;;;;;;;39.37;14.29;98154.53;6232675;28;20228;-70
2022/07/12 15:44:31;;;;;;;1.30;0.80;;;;;;;39.71;14.21;98160.69;6250791;28;20761;-70
2022/07/12 15:47:34;;;;;;;1.30;0.70;;;;;;;40.43;13.87;98154.81;6251282;28;20227;-70
2022/07/12 15:50:36;;;;;;;2.72;0.60;;;;;;;40.11;13.38;98153.69;6251989;28;20241;-71
2022/07/12 15:53:39;;;;;;;0.98;0.60;;;;;;;40.13;13.96;98151.41;6252863;28;20230;-69
2022/07/12 15:56:42;;;;;;;2.40;0.60;;;;;;;40.61;13.39;98151.13;6251541;28;20254;-70
2022/07/12 15:59:44;;;;;;;1.77;0.70;;;;;;;40.60;13.57;98154.19;6235942;28;20592;-71
2022/07/12 16:02:46;;;;;;;1.60;0.52;;;;;;;41.12;13.20;98147.38;6256178;28;20266;-69
2022/07/12 16:05:48;;;;;;;2.47;0.65;;;;;;;41.15;13.27;98152.25;6257540;28;20238;-71
2022/07/12 16:08:50;;;;;;;0.50;0.47;;;;;;;41.30;12.96;98146.41;6257375;28;20718;-71
2022/07/12 16:11:52;;;;;;;1.10;0.70;;;;;;;40.96;13.05;98140.47;6257956;28;20238;-71
2022/07/12 16:15:00;;;;;;;1.50;0.70;;;;;;;40.77;13.00;98140.59;6255849;28;20314;-70